Dubbo, Australia
Current Conditions -  °F | °C
As of 11:30 PM on Sunday 23 Nov 2014 (Local Time) from YSDU Reporting Station
Clear Clear  
Wind Chill: 86°   Ceiling: Unl
Heat Index: 86°   Visibility: 6mi
Dew Point: 52°   Wind: 8mph
Humidity: 31%   Direction: 160°SSE
Pressure: 29.88"   Gusts: NA
Location:  32.26°S, 148.6°E
Report Text: YSDU 231230Z AUTO 16007KT 9999 // NCD 30/11 Q1012
Loading
Personal Weather Stations






























Interactive Weather Map New forecast layout! Learn more

10-Day Weather Forecast

Advertisements
Track Severe Weather on mobile